createdAt,value
2019-03-13T00:00:44.946Z,6.80
2019-03-13T00:03:16.795Z,7.53
2019-03-13T00:05:46.490Z,6.43
2019-03-13T00:08:16.222Z,6.70
2019-03-13T00:10:45.974Z,5.43
2019-03-13T00:13:18.150Z,6.07
2019-03-13T00:15:49.710Z,6.00
2019-03-13T00:18:19.052Z,6.17
2019-03-13T00:20:51.975Z,6.33
2019-03-13T00:23:27.167Z,6.33
2019-03-13T00:25:56.786Z,6.20
2019-03-13T00:28:26.325Z,5.87
2019-03-13T00:30:55.968Z,5.87
2019-03-13T00:33:26.977Z,6.70
2019-03-13T00:35:57.999Z,6.63
2019-03-13T00:38:27.569Z,7.13
2019-03-13T00:40:57.217Z,7.23
2019-03-13T00:43:26.922Z,6.50
2019-03-13T00:45:56.586Z,7.10
2019-03-13T00:48:26.159Z,7.63
2019-03-13T00:50:55.782Z,6.83
2019-03-13T00:53:31.581Z,7.03
2019-03-13T00:56:03.152Z,7.97
2019-03-13T00:58:32.806Z,6.57
2019-03-13T01:01:20.077Z,6.80
2019-03-13T01:04:08.815Z,7.43
2019-03-13T01:06:46.987Z,7.10
2019-03-13T01:09:16.634Z,6.50
2019-03-13T01:11:47.595Z,7.43
2019-03-13T01:14:18.221Z,7.57
2019-03-13T01:16:48.117Z,7.00
2019-03-13T01:19:21.280Z,6.67
2019-03-13T01:21:50.862Z,6.47
2019-03-13T01:24:20.509Z,6.43
2019-03-13T01:26:52.024Z,5.80
2019-03-13T01:29:22.580Z,5.83
2019-03-13T01:32:09.798Z,5.30
2019-03-13T01:34:57.121Z,6.30
2019-03-13T01:37:26.909Z,5.73
2019-03-13T01:39:58.698Z,6.90
2019-03-13T01:42:28.327Z,5.23
2019-03-13T01:44:58.027Z,5.37
2019-03-13T01:47:31.048Z,5.30
2019-03-13T01:50:00.778Z,5.40
2019-03-13T01:52:32.336Z,5.00
2019-03-13T01:55:02.142Z,4.77
2019-03-13T01:57:31.649Z,5.57
2019-03-13T02:00:01.274Z,4.97
2019-03-13T02:02:32.617Z,5.63
2019-03-13T02:05:02.365Z,5.77
2019-03-13T02:07:32.077Z,6.20
2019-03-13T02:10:05.540Z,6.33
2019-03-13T02:12:38.570Z,5.60
2019-03-13T02:15:09.074Z,5.83
2019-03-13T02:17:38.672Z,6.33
2019-03-13T02:20:09.157Z,4.77
2019-03-13T02:22:38.848Z,5.30
2019-03-13T02:25:09.782Z,5.60
2019-03-13T02:27:41.302Z,4.93
2019-03-13T02:30:12.438Z,4.60
2019-03-13T02:32:42.112Z,4.83
2019-03-13T02:35:11.819Z,5.30
2019-03-13T02:37:41.496Z,4.60
2019-03-13T02:40:11.692Z,4.23
2019-03-13T02:42:41.580Z,4.50
2019-03-13T02:45:11.766Z,4.37
2019-03-13T02:47:41.478Z,5.93
2019-03-13T02:50:14.764Z,4.97
2019-03-13T02:52:44.492Z,4.50
2019-03-13T02:55:14.069Z,4.60
2019-03-13T02:57:43.673Z,5.43
2019-03-13T03:00:17.499Z,5.50
2019-03-13T03:02:51.686Z,4.60
2019-03-13T03:05:21.337Z,5.07
2019-03-13T03:07:52.123Z,4.53
2019-03-13T03:10:22.769Z,5.73
2019-03-13T03:12:54.656Z,5.77
2019-03-13T03:15:25.570Z,4.60
2019-03-13T03:17:56.360Z,4.53
2019-03-13T03:20:25.990Z,4.30
2019-03-13T03:22:55.735Z,5.50
2019-03-13T03:25:27.572Z,5.60
2019-03-13T03:27:57.204Z,5.43
2019-03-13T03:30:27.396Z,4.57
2019-03-13T03:32:59.772Z,4.67
2019-03-13T03:35:29.523Z,4.77
2019-03-13T03:37:59.110Z,4.90
2019-03-13T03:40:31.822Z,4.23
2019-03-13T03:43:03.105Z,5.00
2019-03-13T03:45:36.302Z,4.80
2019-03-13T03:48:07.369Z,5.00
2019-03-13T03:50:38.269Z,5.60
2019-03-13T03:53:08.256Z,6.87
2019-03-13T03:55:37.929Z,6.57
2019-03-13T03:58:12.260Z,5.43
2019-03-13T04:00:42.109Z,6.03
2019-03-13T04:03:17.412Z,5.20
2019-03-13T04:05:45.047Z,5.20
2019-03-13T04:08:14.742Z,5.30
2019-03-13T04:10:44.404Z,5.67
2019-03-13T04:13:15.699Z,5.23
2019-03-13T04:15:45.384Z,5.33
2019-03-13T04:18:15.021Z,7.77
2019-03-13T04:20:45.713Z,10.07
2019-03-13T04:23:16.483Z,9.77
2019-03-13T04:25:47.675Z,6.30
2019-03-13T04:28:17.329Z,5.50
2019-03-13T04:30:47.049Z,5.00
2019-03-13T04:33:18.354Z,4.83
2019-03-13T04:35:50.659Z,5.83
2019-03-13T04:38:24.141Z,5.37
2019-03-13T04:40:55.673Z,5.83
2019-03-13T04:43:25.007Z,6.53
2019-03-13T04:46:00.274Z,5.63
2019-03-13T04:48:30.005Z,5.27
2019-03-13T04:51:00.680Z,5.13
2019-03-13T04:53:30.337Z,5.87
2019-03-13T04:56:03.532Z,6.17
2019-03-13T04:58:36.300Z,6.17
2019-03-13T05:01:09.540Z,5.67
2019-03-13T05:03:39.224Z,16.43
2019-03-13T05:06:23.540Z,11.80
2019-03-13T05:09:23.210Z,7.07
2019-03-13T05:11:53.261Z,8.67
2019-03-13T05:14:26.797Z,7.27
2019-03-13T05:16:57.542Z,7.10
2019-03-13T05:19:27.183Z,8.13
2019-03-13T05:21:57.022Z,7.27
2019-03-13T05:24:27.975Z,6.50
2019-03-13T05:26:59.030Z,9.23
2019-03-13T05:29:29.654Z,13.80
2019-03-13T05:32:02.213Z,12.00
2019-03-13T05:34:34.000Z,13.47
2019-03-13T05:37:05.259Z,13.13
2019-03-13T05:39:38.561Z,13.33
2019-03-13T05:42:08.378Z,13.37
2019-03-13T05:44:41.426Z,13.73
2019-03-13T05:47:11.239Z,14.27
2019-03-13T05:49:40.922Z,13.60
2019-03-13T05:52:13.825Z,15.60
2019-03-13T05:54:45.793Z,16.77
2019-03-13T05:57:17.536Z,15.47
2019-03-13T05:59:50.143Z,15.20
2019-03-13T06:02:19.753Z,16.23
2019-03-13T06:04:51.776Z,15.53
2019-03-13T06:07:23.397Z,13.47
2019-03-13T06:10:00.665Z,13.47
2019-03-13T06:12:31.520Z,12.70
2019-03-13T06:15:03.524Z,12.67
2019-03-13T06:17:33.782Z,14.03
2019-03-13T06:20:04.759Z,13.07
2019-03-13T06:22:34.339Z,11.63
2019-03-13T06:25:05.348Z,10.20
2019-03-13T06:27:36.049Z,9.63
2019-03-13T06:30:11.765Z,8.20
2019-03-13T06:32:41.537Z,8.20
2019-03-13T06:35:11.461Z,8.43
2019-03-13T06:37:45.290Z,8.17
2019-03-13T06:40:15.149Z,8.63
2019-03-13T06:42:46.119Z,8.83
2019-03-13T06:45:18.293Z,7.40
2019-03-13T06:47:49.475Z,7.00
2019-03-13T06:50:21.534Z,4.83
2019-03-13T06:52:50.916Z,4.83
2019-03-13T06:55:24.207Z,4.50
2019-03-13T06:57:55.767Z,3.43
2019-03-13T07:00:45.261Z,3.40
2019-03-13T07:03:36.581Z,3.10
2019-03-13T07:06:16.913Z,3.63
2019-03-13T07:09:08.292Z,3.33
2019-03-13T07:11:55.603Z,2.50
2019-03-13T07:14:46.978Z,2.03
2019-03-13T07:17:25.210Z,2.30
2019-03-13T07:20:16.712Z,2.50
2019-03-13T07:23:07.217Z,2.37
2019-03-13T07:26:00.308Z,2.50
2019-03-13T07:28:37.872Z,11.90
2019-03-13T07:31:22.365Z,2.30
2019-03-13T07:34:19.432Z,2.23
2019-03-13T07:37:03.124Z,2.20
2019-03-13T07:39:51.932Z,2.40
2019-03-13T07:42:46.397Z,3.30
2019-03-13T07:45:36.790Z,2.77
2019-03-13T07:48:25.214Z,2.97
2019-03-13T07:51:12.050Z,3.47
2019-03-13T07:53:50.848Z,4.33
2019-03-13T07:56:50.380Z,3.03
2019-03-13T07:59:56.928Z,2.87
2019-03-13T08:02:46.409Z,2.63
2019-03-13T08:05:27.964Z,3.50
2019-03-13T08:08:15.477Z,3.20
2019-03-13T08:11:20.979Z,3.23
2019-03-13T08:14:12.075Z,2.80
2019-03-13T08:17:09.017Z,2.97
2019-03-13T08:20:18.992Z,4.00
2019-03-13T08:23:07.414Z,3.30
2019-03-13T08:25:51.639Z,7.17
2019-03-13T08:28:43.283Z,3.63
2019-03-13T08:31:29.845Z,3.27
2019-03-13T08:34:23.864Z,3.20
2019-03-13T08:37:18.084Z,2.90
2019-03-13T08:40:09.626Z,2.97
2019-03-13T08:43:01.687Z,2.57
2019-03-13T08:46:06.155Z,2.77
2019-03-13T08:48:54.994Z,2.47
2019-03-13T08:52:00.629Z,2.93
2019-03-13T08:55:00.697Z,2.50
2019-03-13T08:58:12.355Z,2.47
2019-03-13T09:01:12.016Z,2.53
2019-03-13T09:04:07.695Z,1.90
2019-03-13T09:07:10.913Z,1.50
2019-03-13T09:09:52.031Z,1.60
2019-03-13T09:12:55.464Z,2.20
2019-03-13T09:15:42.577Z,2.30
2019-03-13T09:18:37.521Z,1.70
2019-03-13T09:21:46.496Z,1.60
2019-03-13T09:24:34.515Z,1.63
2019-03-13T09:27:35.322Z,1.70
2019-03-13T09:30:28.427Z,1.83
2019-03-13T09:33:25.071Z,1.80
2019-03-13T09:36:16.709Z,1.90
2019-03-13T09:39:02.613Z,1.70
2019-03-13T09:41:41.857Z,1.60
2019-03-13T09:44:38.909Z,1.70
2019-03-13T09:47:36.488Z,1.80
2019-03-13T09:50:14.683Z,1.90
2019-03-13T09:53:04.076Z,1.70
2019-03-13T09:55:52.636Z,1.73
2019-03-13T09:58:47.535Z,2.00
2019-03-13T10:01:53.598Z,1.97
2019-03-13T10:04:42.208Z,1.60
2019-03-13T10:07:49.306Z,3.37
2019-03-13T10:10:42.094Z,2.30
2019-03-13T10:13:39.379Z,2.00
2019-03-13T10:16:28.012Z,2.23
2019-03-13T10:19:15.019Z,1.70
2019-03-13T10:22:03.478Z,2.10
2019-03-13T10:24:44.823Z,2.03
2019-03-13T10:27:24.402Z,1.73
2019-03-13T10:30:02.759Z,2.10
2019-03-13T10:32:52.867Z,2.00
2019-03-13T10:35:31.979Z,2.23
2019-03-13T10:38:22.494Z,2.23
2019-03-13T10:41:17.440Z,1.70
2019-03-13T10:44:04.631Z,1.40
2019-03-13T10:46:46.212Z,1.60
2019-03-13T10:49:29.490Z,1.63
2019-03-13T10:52:28.581Z,1.80
2019-03-13T10:55:22.849Z,2.20
2019-03-13T10:58:17.286Z,2.07
2019-03-13T11:01:11.303Z,1.80
2019-03-13T11:03:59.204Z,2.00
2019-03-13T11:06:55.037Z,3.10
2019-03-13T11:09:25.775Z,1.60
2019-03-13T11:12:02.419Z,1.60
2019-03-13T11:14:47.836Z,1.63
2019-03-13T11:17:36.398Z,2.57
2019-03-13T11:20:30.526Z,2.10
2019-03-13T11:23:24.859Z,1.77
2019-03-13T11:26:07.299Z,1.80
2019-03-13T11:29:01.241Z,1.90
2019-03-13T11:31:49.708Z,1.60
2019-03-13T11:34:56.299Z,1.70
2019-03-13T11:37:58.418Z,1.77
2019-03-13T11:40:45.932Z,1.63
2019-03-13T11:43:34.398Z,1.77
2019-03-13T11:46:21.981Z,1.50
2019-03-13T11:49:09.342Z,2.00
2019-03-13T11:52:08.036Z,2.07
2019-03-13T11:55:04.813Z,1.90
2019-03-13T11:58:06.437Z,1.90
2019-03-13T12:00:47.673Z,1.93
2019-03-13T12:03:41.817Z,1.63
2019-03-13T12:06:21.316Z,1.93
2019-03-13T12:09:10.014Z,2.00
2019-03-13T12:12:02.228Z,2.00
2019-03-13T12:14:43.701Z,2.30
2019-03-13T12:17:37.024Z,2.10
2019-03-13T12:20:33.156Z,2.10
2019-03-13T12:23:31.580Z,2.03
2019-03-13T12:26:18.741Z,2.57
2019-03-13T12:29:10.272Z,2.20
2019-03-13T12:32:04.981Z,2.40
2019-03-13T12:34:52.339Z,2.83
2019-03-13T12:37:35.101Z,2.20
2019-03-13T12:40:37.638Z,2.77
2019-03-13T12:43:38.757Z,2.13
2019-03-13T12:46:26.985Z,2.10
2019-03-13T12:49:24.899Z,2.20
2019-03-13T12:52:09.658Z,2.63
2019-03-13T12:54:58.337Z,2.50
2019-03-13T12:57:46.942Z,2.60
2019-03-13T13:00:37.356Z,2.70
2019-03-13T13:03:20.376Z,2.93
2019-03-13T13:06:09.100Z,3.00
2019-03-13T13:08:57.011Z,2.77
2019-03-13T13:11:55.822Z,2.97
2019-03-13T13:14:52.459Z,2.87
2019-03-13T13:17:38.959Z,3.10
2019-03-13T13:20:10.663Z,3.53
2019-03-13T13:22:40.507Z,2.73
2019-03-13T13:25:12.755Z,3.07
2019-03-13T13:27:43.837Z,2.53
2019-03-13T13:30:14.471Z,2.47
2019-03-13T13:32:44.163Z,2.33
2019-03-13T13:35:14.129Z,3.40
2019-03-13T13:37:44.196Z,3.40
2019-03-13T13:40:14.256Z,2.67
2019-03-13T13:42:43.919Z,3.17
2019-03-13T13:45:43.100Z,2.70
2019-03-13T13:48:17.086Z,2.90
2019-03-13T13:50:47.216Z,2.80
2019-03-13T13:53:17.138Z,3.00
2019-03-13T13:55:47.968Z,3.10
2019-03-13T13:58:17.826Z,3.13
2019-03-13T14:00:47.858Z,2.90
2019-03-13T14:03:17.545Z,2.73
2019-03-13T14:05:47.229Z,3.03
2019-03-13T14:08:16.945Z,3.30
2019-03-13T14:10:46.809Z,3.43
2019-03-13T14:13:17.094Z,3.27
2019-03-13T14:15:47.344Z,2.80
2019-03-13T14:18:17.289Z,2.80
2019-03-13T14:20:47.203Z,2.73
2019-03-13T14:23:17.190Z,3.03
2019-03-13T14:25:47.021Z,3.27
2019-03-13T14:28:16.627Z,3.27
2019-03-13T14:30:46.272Z,3.20
2019-03-13T14:33:16.146Z,2.90
2019-03-13T14:35:46.563Z,3.40
2019-03-13T14:38:18.142Z,2.93
2019-03-13T14:40:47.968Z,3.40
2019-03-13T14:43:18.329Z,3.17
2019-03-13T14:45:48.388Z,3.73
2019-03-13T14:48:17.988Z,4.00
2019-03-13T14:50:47.704Z,3.93
2019-03-13T14:53:17.549Z,4.00
2019-03-13T14:55:47.239Z,3.70
2019-03-13T14:58:16.830Z,3.63
2019-03-13T15:00:46.613Z,3.87
2019-03-13T15:03:16.761Z,3.60
2019-03-13T15:05:46.535Z,3.33
2019-03-13T15:08:18.154Z,3.27
2019-03-13T15:10:47.999Z,4.07
2019-03-13T15:13:17.785Z,4.00
2019-03-13T15:15:47.565Z,3.13
2019-03-13T15:18:17.337Z,3.80
2019-03-13T15:20:47.419Z,3.67
2019-03-13T15:23:17.309Z,4.13
2019-03-13T15:25:48.870Z,4.07
2019-03-13T15:28:18.575Z,3.77
2019-03-13T15:30:48.385Z,3.37
2019-03-13T15:33:18.020Z,3.20
2019-03-13T15:35:47.911Z,3.63
2019-03-13T15:38:17.987Z,3.70
2019-03-13T15:40:47.897Z,4.00
2019-03-13T15:43:17.803Z,3.70
2019-03-13T15:45:47.570Z,3.37
2019-03-13T15:48:18.717Z,3.93
2019-03-13T15:50:48.486Z,3.50
2019-03-13T15:53:18.220Z,4.27
2019-03-13T15:55:48.095Z,3.83
2019-03-13T15:58:17.906Z,3.37
2019-03-13T16:00:47.751Z,4.53
2019-03-13T16:03:17.520Z,4.60
2019-03-13T16:05:47.273Z,3.93
2019-03-13T16:08:17.070Z,4.07
2019-03-13T16:10:46.931Z,4.40
2019-03-13T16:13:16.772Z,4.57
2019-03-13T16:15:46.691Z,3.80
2019-03-13T16:18:16.304Z,4.50
2019-03-13T16:20:46.170Z,4.43
2019-03-13T16:23:17.366Z,4.50
2019-03-13T16:25:47.034Z,4.63
2019-03-13T16:28:16.752Z,4.60
2019-03-13T16:30:46.657Z,4.33
2019-03-13T16:33:16.731Z,4.70
2019-03-13T16:35:46.803Z,5.23
2019-03-13T16:38:16.614Z,5.07
2019-03-13T16:40:47.666Z,3.43
2019-03-13T16:43:18.371Z,4.27
2019-03-13T16:45:48.099Z,4.00
2019-03-13T16:48:17.966Z,4.37
2019-03-13T16:50:47.772Z,9.67
2019-03-13T16:53:17.616Z,4.80
2019-03-13T16:55:47.208Z,4.60
2019-03-13T16:58:16.931Z,10.40
2019-03-13T17:00:46.663Z,6.00
2019-03-13T17:03:16.429Z,5.70
2019-03-13T17:05:46.098Z,4.27
2019-03-13T17:08:15.887Z,4.30
2019-03-13T17:10:45.635Z,5.20
2019-03-13T17:13:15.433Z,5.33
2019-03-13T17:15:45.049Z,5.13
2019-03-13T17:18:14.831Z,4.60
2019-03-13T17:20:44.598Z,5.17
2019-03-13T17:23:14.429Z,8.97
2019-03-13T17:25:44.168Z,7.20
2019-03-13T17:28:13.941Z,11.30
2019-03-13T17:30:43.613Z,10.80
2019-03-13T17:33:13.270Z,8.50
2019-03-13T17:35:43.130Z,8.63
2019-03-13T17:38:13.175Z,7.37
2019-03-13T17:40:42.795Z,9.67
2019-03-13T17:43:12.527Z,7.73
2019-03-13T17:45:42.334Z,7.53
2019-03-13T17:48:12.102Z,6.67
2019-03-13T17:50:41.824Z,6.27
2019-03-13T17:53:11.470Z,6.37
2019-03-13T17:55:41.284Z,8.13
2019-03-13T17:58:10.946Z,6.23
2019-03-13T18:00:50.649Z,7.07
2019-03-13T18:03:20.697Z,7.00
2019-03-13T18:05:50.411Z,6.63
2019-03-13T18:08:20.015Z,6.67
2019-03-13T18:10:50.119Z,6.57
2019-03-13T18:13:19.971Z,5.90
2019-03-13T18:15:49.694Z,5.93
2019-03-13T18:18:19.477Z,6.40
2019-03-13T18:20:49.319Z,6.47
2019-03-13T18:23:19.018Z,6.27
2019-03-13T18:25:49.246Z,5.50
2019-03-13T18:28:18.994Z,5.70
2019-03-13T18:30:48.773Z,6.13
2019-03-13T18:33:18.455Z,5.60
2019-03-13T18:35:48.176Z,5.63
2019-03-13T18:38:17.974Z,10.20
2019-03-13T18:40:47.622Z,5.97
2019-03-13T18:43:17.352Z,5.87
2019-03-13T18:45:47.050Z,8.00
2019-03-13T18:48:16.794Z,5.97
2019-03-13T18:50:46.397Z,6.37
2019-03-13T18:53:16.114Z,6.03
2019-03-13T18:55:45.887Z,4.73
2019-03-13T18:58:15.567Z,5.27
2019-03-13T19:00:45.187Z,5.50
2019-03-13T19:03:14.973Z,5.53
2019-03-13T19:05:44.591Z,6.03
2019-03-13T19:08:14.214Z,6.07
2019-03-13T19:10:43.954Z,6.07
2019-03-13T19:13:13.664Z,6.07
2019-03-13T19:15:43.355Z,5.07
2019-03-13T19:18:13.203Z,6.37
2019-03-13T19:20:43.081Z,6.20
2019-03-13T19:23:14.277Z,5.97
2019-03-13T19:25:44.214Z,5.87
2019-03-13T19:28:13.853Z,17.80
2019-03-13T19:30:43.488Z,8.53
2019-03-13T19:33:13.261Z,6.57
2019-03-13T19:35:43.027Z,6.50
2019-03-13T19:38:12.933Z,6.30
2019-03-13T19:40:42.815Z,6.40
2019-03-13T19:43:12.389Z,7.07
2019-03-13T19:45:42.675Z,6.83
2019-03-13T19:48:12.556Z,6.50
2019-03-13T19:50:42.279Z,7.10
2019-03-13T19:53:12.169Z,6.93
2019-03-13T19:55:42.047Z,6.87
2019-03-13T19:58:11.740Z,7.50
2019-03-13T20:00:42.321Z,9.73
2019-03-13T20:03:12.216Z,8.10
2019-03-13T20:05:45.872Z,7.70
2019-03-13T20:08:14.112Z,7.97
2019-03-13T20:10:44.276Z,7.40
2019-03-13T20:13:13.966Z,7.40
2019-03-13T20:15:43.689Z,7.97
2019-03-13T20:18:13.342Z,11.50
2019-03-13T20:20:43.147Z,7.97
2019-03-13T20:23:12.914Z,8.40
2019-03-13T20:25:42.826Z,7.87
2019-03-13T20:28:12.383Z,7.57
2019-03-13T20:30:42.125Z,7.37
2019-03-13T20:33:12.019Z,7.50
2019-03-13T20:35:41.843Z,7.43
2019-03-13T20:38:11.446Z,8.50
2019-03-13T20:40:41.191Z,8.03
2019-03-13T20:43:10.989Z,8.50
2019-03-13T20:45:40.812Z,8.63
2019-03-13T20:48:10.574Z,8.10
2019-03-13T20:50:40.293Z,8.03
2019-03-13T20:53:09.980Z,8.30
2019-03-13T20:55:39.440Z,8.17
2019-03-13T20:58:09.142Z,7.83
2019-03-13T21:00:38.787Z,9.17
2019-03-13T21:03:08.637Z,8.40
2019-03-13T21:05:38.306Z,8.63
2019-03-13T21:08:08.153Z,9.30
2019-03-13T21:10:37.784Z,8.20
2019-03-13T21:13:07.524Z,8.57
2019-03-13T21:15:37.153Z,8.33
2019-03-13T21:18:07.027Z,8.30
2019-03-13T21:20:36.942Z,8.47
2019-03-13T21:23:06.836Z,8.43
2019-03-13T21:25:38.748Z,8.53
2019-03-13T21:28:08.352Z,8.00
2019-03-13T21:30:38.128Z,8.57
2019-03-13T21:33:08.000Z,8.33
2019-03-13T21:35:37.681Z,8.27
2019-03-13T21:38:07.350Z,9.03
2019-03-13T21:40:36.982Z,7.57
2019-03-13T21:43:06.709Z,7.97
2019-03-13T21:45:41.463Z,8.30
2019-03-13T21:48:07.878Z,8.30
2019-03-13T21:50:37.618Z,8.40
2019-03-13T21:53:07.363Z,9.20
2019-03-13T21:55:37.270Z,9.10
2019-03-13T21:58:07.127Z,8.67
2019-03-13T22:00:37.112Z,9.00
2019-03-13T22:03:07.082Z,8.60
2019-03-13T22:05:36.831Z,9.20
2019-03-13T22:08:06.430Z,8.30
2019-03-13T22:10:36.243Z,8.60
2019-03-13T22:13:06.040Z,8.90
2019-03-13T22:15:35.946Z,9.07
2019-03-13T22:18:05.802Z,9.00
2019-03-13T22:20:35.514Z,8.57
2019-03-13T22:23:05.331Z,8.27
2019-03-13T22:25:35.078Z,9.20
2019-03-13T22:28:04.735Z,8.00
2019-03-13T22:30:34.375Z,9.80
2019-03-13T22:33:05.361Z,8.47
2019-03-13T22:35:34.945Z,8.40
2019-03-13T22:38:04.468Z,8.63
2019-03-13T22:40:35.577Z,9.40
2019-03-13T22:43:05.212Z,8.33
2019-03-13T22:45:35.088Z,8.77
2019-03-13T22:48:04.685Z,8.43
2019-03-13T22:50:34.446Z,9.27
2019-03-13T22:53:04.302Z,8.63
2019-03-13T22:55:33.965Z,9.40
2019-03-13T22:58:03.828Z,9.13
2019-03-13T23:01:21.454Z,9.50
2019-03-13T23:03:51.753Z,8.90
2019-03-13T23:06:21.677Z,9.50
2019-03-13T23:08:51.409Z,9.23
2019-03-13T23:11:21.393Z,9.13
2019-03-13T23:13:51.010Z,8.93
2019-03-13T23:16:23.749Z,8.77
2019-03-13T23:18:52.048Z,8.53
2019-03-13T23:21:21.642Z,9.73
2019-03-13T23:23:51.247Z,8.93
2019-03-13T23:26:20.876Z,9.20
2019-03-13T23:28:50.464Z,8.97
2019-03-13T23:31:20.325Z,9.80
2019-03-13T23:33:49.917Z,9.27
2019-03-13T23:36:19.667Z,7.87
2019-03-13T23:38:49.313Z,8.83
2019-03-13T23:41:19.108Z,9.10
2019-03-13T23:43:49.027Z,8.33
2019-03-13T23:46:18.740Z,9.17
2019-03-13T23:48:48.489Z,8.80
2019-03-13T23:51:18.298Z,9.47
2019-03-13T23:53:47.920Z,8.37
2019-03-13T23:56:17.659Z,9.70
2019-03-13T23:58:49.112Z,9.30
